Hiram, Kentucky
Current Conditions -  °F | °C
As of 9:15 AM on Sunday 21 Dec 2014 (Local Time) from KI35 Reporting Station
Broken Clouds Broken Clouds  
Wind Chill: 28°   Ceiling: 200
Heat Index: 28°   Visibility: 2.5mi
Dew Point: 28°   Wind: 0mph
Humidity: 100%   Direction: NA
Pressure: 30.26"   Gusts: NA
Location:  36.9548°N, 82.9776°W
Report Text: KI35 211415Z AUTO 00000KT 2 1/2SM BKN002 M02/M02 A3026 RMK AO1
Loading
Personal Weather Stations






























Interactive Weather Map New forecast layout! Learn more

10-Day Weather Forecast

Advertisements
Track Severe Weather on mobile